createdAt,value
2022-10-20T00:00:59.815Z,49.86
2022-10-20T00:03:29.940Z,49.65
2022-10-20T00:06:08.344Z,49.57
2022-10-20T00:08:36.376Z,49.57
2022-10-20T00:11:04.818Z,49.68
2022-10-20T00:13:33.672Z,49.60
2022-10-20T00:16:01.838Z,49.81
2022-10-20T00:18:30.058Z,49.47
2022-10-20T00:20:58.190Z,49.83
2022-10-20T00:23:27.620Z,49.63
2022-10-20T00:26:06.002Z,49.41
2022-10-20T00:28:34.471Z,49.77
2022-10-20T00:31:02.559Z,49.66
2022-10-20T00:33:30.674Z,49.71
2022-10-20T00:36:00.427Z,49.38
2022-10-20T00:38:30.173Z,49.47
2022-10-20T00:41:00.142Z,49.67
2022-10-20T00:43:42.973Z,49.00
2022-10-20T00:46:13.384Z,49.68
2022-10-20T00:48:43.147Z,49.70
2022-10-20T00:51:16.306Z,49.48
2022-10-20T00:53:47.397Z,49.77
2022-10-20T00:56:16.163Z,49.65
2022-10-20T00:58:45.025Z,49.78
2022-10-20T01:01:14.908Z,49.33
2022-10-20T01:03:46.553Z,49.42
2022-10-20T01:08:46.710Z,49.37
2022-10-20T01:11:20.545Z,49.57
2022-10-20T01:14:01.035Z,49.39
2022-10-20T01:16:40.172Z,49.20
2022-10-20T01:19:27.022Z,49.17
2022-10-20T01:22:14.632Z,48.96
2022-10-20T01:25:02.733Z,48.96
2022-10-20T01:27:35.345Z,49.23
2022-10-20T01:30:09.766Z,49.35
2022-10-20T01:33:07.289Z,49.29
2022-10-20T01:35:43.072Z,49.30
2022-10-20T01:38:17.452Z,49.11
2022-10-20T01:40:50.252Z,49.13
2022-10-20T01:43:22.252Z,49.30
2022-10-20T01:45:53.264Z,49.34
2022-10-20T01:48:25.130Z,49.49
2022-10-20T01:50:53.711Z,49.27
2022-10-20T01:53:22.180Z,49.28
2022-10-20T01:55:53.166Z,49.25
2022-10-20T01:58:51.944Z,48.64
2022-10-20T02:01:27.705Z,49.22
2022-10-20T02:03:59.285Z,49.20
2022-10-20T02:06:37.719Z,49.13
2022-10-20T02:09:08.379Z,49.23
2022-10-20T02:11:44.757Z,48.95
2022-10-20T02:14:17.629Z,49.06
2022-10-20T02:16:50.320Z,49.39
2022-10-20T02:19:22.502Z,49.32
2022-10-20T02:21:52.888Z,49.29
2022-10-20T02:24:25.062Z,49.16
2022-10-20T02:26:55.787Z,49.18
2022-10-20T02:29:29.183Z,49.13
2022-10-20T02:31:58.038Z,49.28
2022-10-20T02:34:27.265Z,49.31
2022-10-20T02:36:57.991Z,49.37
2022-10-20T02:39:26.227Z,49.54
2022-10-20T02:41:54.713Z,49.14
2022-10-20T02:44:24.245Z,49.30
2022-10-20T02:46:52.271Z,49.37
2022-10-20T02:49:21.634Z,49.55
2022-10-20T02:51:49.734Z,49.55
2022-10-20T02:54:18.140Z,49.14
2022-10-20T02:56:46.397Z,49.30
2022-10-20T02:59:17.015Z,49.38
2022-10-20T03:01:46.514Z,49.31
2022-10-20T03:04:15.016Z,49.11
2022-10-20T03:06:43.223Z,49.33
2022-10-20T03:09:11.453Z,49.28
2022-10-20T03:11:39.577Z,49.24
2022-10-20T03:14:07.635Z,49.27
2022-10-20T03:16:35.948Z,49.34
2022-10-20T03:19:07.290Z,49.21
2022-10-20T03:21:37.281Z,49.08
2022-10-20T03:24:05.653Z,49.35
2022-10-20T03:26:33.819Z,49.19
2022-10-20T03:29:01.787Z,49.23
2022-10-20T03:31:29.880Z,49.26
2022-10-20T03:33:57.866Z,49.22
2022-10-20T03:36:27.659Z,49.24
2022-10-20T03:38:55.582Z,49.37
2022-10-20T03:41:23.573Z,49.30
2022-10-20T03:43:51.676Z,49.13
2022-10-20T03:46:19.576Z,49.33
2022-10-20T03:48:47.543Z,49.16
2022-10-20T03:51:16.083Z,49.27
2022-10-20T03:53:45.445Z,49.17
2022-10-20T03:56:18.265Z,49.01
2022-10-20T03:58:46.379Z,49.03
2022-10-20T04:01:17.332Z,49.29
2022-10-20T04:03:45.777Z,49.12
2022-10-20T04:06:14.623Z,49.27
2022-10-20T04:08:42.850Z,49.04
2022-10-20T04:11:12.417Z,49.04
2022-10-20T04:13:40.522Z,49.16
2022-10-20T04:16:09.407Z,49.36
2022-10-20T04:18:37.445Z,49.28
2022-10-20T04:21:06.082Z,49.25
2022-10-20T04:23:34.082Z,49.12
2022-10-20T04:26:08.254Z,49.02
2022-10-20T04:28:38.058Z,49.13
2022-10-20T04:31:06.875Z,49.34
2022-10-20T04:33:35.799Z,49.05
2022-10-20T04:36:06.284Z,49.28
2022-10-20T04:38:36.052Z,49.06
2022-10-20T04:41:05.536Z,49.30
2022-10-20T04:43:33.856Z,49.22
2022-10-20T04:46:07.934Z,49.03
2022-10-20T04:48:37.447Z,49.07
2022-10-20T04:51:07.307Z,49.05
2022-10-20T04:53:35.523Z,49.16
2022-10-20T04:56:04.225Z,49.11
2022-10-20T04:58:32.756Z,49.03
2022-10-20T05:01:04.444Z,49.17
2022-10-20T05:03:32.958Z,49.29
2022-10-20T05:06:10.643Z,48.91
2022-10-20T05:08:39.084Z,49.07
2022-10-20T05:11:07.948Z,49.03
2022-10-20T05:13:36.138Z,49.19
2022-10-20T05:16:06.390Z,49.10
2022-10-20T05:18:35.151Z,49.15
2022-10-20T05:21:09.778Z,49.20
2022-10-20T05:23:38.725Z,49.20
2022-10-20T05:26:08.480Z,49.22
2022-10-20T05:28:36.720Z,49.28
2022-10-20T05:31:08.267Z,49.06
2022-10-20T05:33:37.520Z,49.19
2022-10-20T05:36:10.285Z,49.00
2022-10-20T05:38:38.508Z,49.20
2022-10-20T05:41:07.694Z,49.25
2022-10-20T05:43:35.619Z,49.07
2022-10-20T05:46:05.049Z,49.10
2022-10-20T05:48:33.548Z,49.36
2022-10-20T05:51:12.010Z,49.10
2022-10-20T05:53:42.875Z,49.34
2022-10-20T05:56:12.887Z,49.10
2022-10-20T05:58:41.477Z,49.38
2022-10-20T06:01:16.769Z,49.04
2022-10-20T06:03:47.876Z,49.37
2022-10-20T06:06:15.857Z,49.31
2022-10-20T06:08:43.961Z,49.20
2022-10-20T06:11:13.916Z,49.28
2022-10-20T06:13:42.119Z,49.28
2022-10-20T06:16:14.031Z,49.25
2022-10-20T06:18:43.017Z,49.13
2022-10-20T06:21:12.363Z,49.15
2022-10-20T06:23:40.444Z,49.17
2022-10-20T06:26:12.184Z,49.26
2022-10-20T06:28:42.306Z,49.01
2022-10-20T06:31:16.457Z,49.15
2022-10-20T06:33:45.080Z,48.94
2022-10-20T06:36:13.826Z,49.11
2022-10-20T06:38:42.385Z,49.13
2022-10-20T06:41:12.774Z,49.26
2022-10-20T06:43:40.791Z,49.17
2022-10-20T06:46:10.459Z,49.09
2022-10-20T06:48:39.812Z,48.86
2022-10-20T06:51:09.655Z,49.09
2022-10-20T06:53:41.498Z,49.06
2022-10-20T06:56:14.032Z,49.02
2022-10-20T06:58:43.635Z,49.21
2022-10-20T07:01:14.749Z,48.81
2022-10-20T07:03:46.014Z,49.08
2022-10-20T07:06:16.301Z,49.05
2022-10-20T07:08:44.528Z,49.13
2022-10-20T07:11:15.564Z,48.97
2022-10-20T07:13:44.366Z,49.18
2022-10-20T07:16:14.641Z,49.10
2022-10-20T07:21:18.905Z,49.11
2022-10-20T07:23:47.535Z,49.07
2022-10-20T07:26:18.085Z,48.83
2022-10-20T07:28:50.874Z,49.07
2022-10-20T07:31:24.640Z,49.15
2022-10-20T07:34:13.273Z,48.94
2022-10-20T07:36:43.426Z,48.94
2022-10-20T07:39:12.819Z,49.11
2022-10-20T07:41:44.067Z,48.66
2022-10-20T07:44:12.179Z,48.96
2022-10-20T07:46:40.116Z,49.14
2022-10-20T07:51:57.937Z,48.98
2022-10-20T07:54:25.894Z,49.12
2022-10-20T07:56:53.859Z,49.09
2022-10-20T07:59:21.816Z,49.14
2022-10-20T08:01:49.939Z,48.98
2022-10-20T08:04:19.387Z,48.99
2022-10-20T08:06:47.680Z,48.98
2022-10-20T08:09:15.651Z,49.03
2022-10-20T08:11:43.592Z,48.94
2022-10-20T08:14:11.555Z,49.03
2022-10-20T08:16:58.754Z,49.11
2022-10-20T08:22:13.105Z,48.86
2022-10-20T08:24:41.347Z,48.85
2022-10-20T08:27:09.637Z,48.77
2022-10-20T08:29:37.953Z,49.09
2022-10-20T08:32:06.881Z,48.89
2022-10-20T08:34:36.187Z,49.04
2022-10-20T08:37:04.131Z,48.94
2022-10-20T08:39:32.312Z,48.79
2022-10-20T08:42:09.625Z,49.09
2022-10-20T08:44:39.701Z,49.15
2022-10-20T08:47:28.008Z,48.91
2022-10-20T08:50:01.255Z,48.97
2022-10-20T08:52:29.446Z,48.90
2022-10-20T08:54:58.920Z,49.10
2022-10-20T08:57:31.490Z,49.12
2022-10-20T09:00:13.635Z,48.84
2022-10-20T09:02:41.789Z,48.92
2022-10-20T09:05:16.666Z,49.17
2022-10-20T09:07:48.541Z,48.83
2022-10-20T09:10:26.483Z,49.09
2022-10-20T09:12:54.739Z,48.87
2022-10-20T09:15:23.900Z,49.09
2022-10-20T09:17:57.057Z,49.06
2022-10-20T09:20:31.772Z,49.00
2022-10-20T09:23:04.075Z,49.09
2022-10-20T09:25:32.793Z,49.02
2022-10-20T09:28:00.924Z,49.14
2022-10-20T09:30:35.425Z,49.04
2022-10-20T09:33:22.278Z,48.62
2022-10-20T09:35:53.350Z,48.92
2022-10-20T09:38:25.071Z,48.93
2022-10-20T09:41:03.992Z,48.84
2022-10-20T09:43:32.964Z,49.07
2022-10-20T09:46:06.082Z,48.82
2022-10-20T09:48:36.930Z,49.20
2022-10-20T09:51:08.542Z,48.91
2022-10-20T09:53:42.277Z,49.03
2022-10-20T09:56:11.148Z,48.99
2022-10-20T09:58:42.220Z,48.92
2022-10-20T10:01:15.958Z,48.86
2022-10-20T10:03:45.014Z,49.23
2022-10-20T10:06:43.058Z,48.32
2022-10-20T10:09:34.168Z,48.66
2022-10-20T10:12:05.683Z,48.74
2022-10-20T10:14:37.264Z,48.81
2022-10-20T10:17:05.485Z,48.91
2022-10-20T10:19:36.016Z,49.08
2022-10-20T10:22:05.835Z,48.89
2022-10-20T10:24:46.575Z,48.91
2022-10-20T10:27:22.844Z,48.92
2022-10-20T10:29:50.942Z,48.88
2022-10-20T10:32:24.192Z,49.03
2022-10-20T10:35:21.120Z,48.42
2022-10-20T10:37:50.832Z,48.97
2022-10-20T10:40:20.602Z,48.89
2022-10-20T10:43:04.838Z,48.74
2022-10-20T10:45:45.648Z,48.51
2022-10-20T10:48:52.555Z,48.40
2022-10-20T10:51:33.345Z,48.82
2022-10-20T10:54:17.035Z,48.57
2022-10-20T10:56:47.555Z,48.95
2022-10-20T10:59:21.791Z,48.58
2022-10-20T11:02:11.088Z,48.56
2022-10-20T11:05:10.165Z,48.70
2022-10-20T11:07:47.158Z,48.87
2022-10-20T11:10:25.772Z,48.65
2022-10-20T11:13:26.207Z,48.28
2022-10-20T11:16:06.656Z,48.67
2022-10-20T11:18:59.609Z,48.48
2022-10-20T11:21:34.960Z,48.57
2022-10-20T11:24:20.086Z,48.78
2022-10-20T11:26:54.598Z,48.76
2022-10-20T11:29:31.354Z,48.96
2022-10-20T11:32:10.563Z,48.69
2022-10-20T11:34:42.043Z,48.79
2022-10-20T11:37:19.463Z,48.74
2022-10-20T11:39:53.583Z,49.05
2022-10-20T11:42:30.769Z,48.97
2022-10-20T11:45:02.540Z,48.92
2022-10-20T11:47:35.636Z,49.04
2022-10-20T11:50:06.829Z,48.88
2022-10-20T11:53:10.091Z,48.35
2022-10-20T11:56:00.532Z,48.58
2022-10-20T11:58:57.070Z,48.71
2022-10-20T12:01:32.578Z,48.63
2022-10-20T12:04:26.746Z,48.68
2022-10-20T12:07:16.537Z,48.65
2022-10-20T12:10:04.553Z,48.63
2022-10-20T12:12:38.656Z,48.75
2022-10-20T12:15:23.114Z,48.42
2022-10-20T12:17:52.627Z,48.77
2022-10-20T12:20:59.791Z,48.31
2022-10-20T12:24:02.827Z,48.38
2022-10-20T12:27:07.548Z,48.55
2022-10-20T12:30:01.344Z,48.25
2022-10-20T12:32:55.825Z,48.41
2022-10-20T12:35:59.579Z,48.27
2022-10-20T12:38:28.814Z,48.65
2022-10-20T12:41:00.494Z,48.90
2022-10-20T12:43:38.787Z,48.50
2022-10-20T12:46:11.274Z,48.84
2022-10-20T12:48:47.375Z,48.74
2022-10-20T12:51:22.484Z,48.76
2022-10-20T12:54:03.930Z,48.63
2022-10-20T12:56:38.519Z,48.70
2022-10-20T12:59:25.381Z,48.64
2022-10-20T13:02:42.117Z,48.35
2022-10-20T13:05:43.116Z,48.27
2022-10-20T13:08:32.970Z,48.59
2022-10-20T13:11:42.286Z,48.39
2022-10-20T13:14:31.863Z,48.32
2022-10-20T13:17:09.822Z,48.65
2022-10-20T13:19:46.057Z,48.86
2022-10-20T13:22:46.733Z,48.39
2022-10-20T13:25:29.301Z,48.55
2022-10-20T13:28:05.558Z,48.73
2022-10-20T13:30:39.439Z,48.82
2022-10-20T13:33:33.831Z,48.73
2022-10-20T13:36:13.593Z,48.64
2022-10-20T13:38:48.041Z,48.85
2022-10-20T13:41:23.694Z,48.49
2022-10-20T13:44:02.978Z,48.80
2022-10-20T13:46:45.417Z,48.55
2022-10-20T13:49:30.410Z,48.44
2022-10-20T13:52:04.265Z,48.63
2022-10-20T13:54:38.196Z,48.65
2022-10-20T13:57:08.153Z,48.79
2022-10-20T13:59:39.528Z,48.72
2022-10-20T14:02:24.923Z,48.57
2022-10-20T14:05:03.883Z,48.32
2022-10-20T14:07:38.296Z,48.72
2022-10-20T14:10:21.178Z,48.57
2022-10-20T14:12:49.414Z,48.79
2022-10-20T14:15:24.304Z,48.55
2022-10-20T14:18:08.931Z,48.45
2022-10-20T14:20:38.783Z,48.62
2022-10-20T14:23:08.160Z,48.80
2022-10-20T14:25:38.741Z,48.43
2022-10-20T14:28:07.828Z,48.93
2022-10-20T14:30:40.827Z,48.81
2022-10-20T14:33:15.104Z,48.55
2022-10-20T14:35:45.152Z,48.61
2022-10-20T14:38:19.509Z,48.44
2022-10-20T14:40:55.217Z,48.46
2022-10-20T14:43:33.542Z,48.50
2022-10-20T14:46:03.062Z,48.48
2022-10-20T14:48:36.679Z,48.40
2022-10-20T14:51:45.474Z,48.16
2022-10-20T14:54:36.265Z,48.28
2022-10-20T14:57:32.284Z,48.35
2022-10-20T15:00:03.920Z,48.82
2022-10-20T15:02:33.809Z,48.51
2022-10-20T15:05:24.359Z,48.13
2022-10-20T15:07:52.610Z,48.69
2022-10-20T15:10:23.901Z,48.69
2022-10-20T15:12:55.761Z,48.68
2022-10-20T15:15:26.093Z,48.76
2022-10-20T15:18:09.153Z,48.52
2022-10-20T15:20:39.058Z,48.33
2022-10-20T15:23:10.768Z,48.60
2022-10-20T15:25:44.801Z,48.59
2022-10-20T15:28:24.505Z,48.60
2022-10-20T15:30:52.802Z,48.54
2022-10-20T15:33:21.348Z,48.79
2022-10-20T15:35:50.649Z,48.40
2022-10-20T15:38:18.681Z,48.61
2022-10-20T15:40:47.171Z,48.58
2022-10-20T15:43:18.597Z,48.68
2022-10-20T15:45:52.247Z,48.58
2022-10-20T15:48:20.292Z,48.58
2022-10-20T15:50:48.618Z,48.67
2022-10-20T15:53:17.940Z,48.48
2022-10-20T15:55:46.442Z,48.43
2022-10-20T15:58:15.025Z,48.58
2022-10-20T16:00:44.469Z,48.66
2022-10-20T16:03:17.697Z,48.63
2022-10-20T16:05:46.305Z,48.66
2022-10-20T16:10:43.785Z,48.70
2022-10-20T16:13:12.428Z,48.52
2022-10-20T16:15:40.465Z,48.53
2022-10-20T16:18:10.251Z,48.39
2022-10-20T16:20:38.349Z,48.47
2022-10-20T16:23:06.384Z,48.52
2022-10-20T16:25:36.419Z,48.71
2022-10-20T16:28:04.837Z,48.60
2022-10-20T16:30:39.019Z,48.61
2022-10-20T16:33:07.111Z,48.64
2022-10-20T16:35:42.410Z,48.51
2022-10-20T16:38:10.469Z,48.48
2022-10-20T16:40:38.613Z,48.73
2022-10-20T16:43:06.603Z,48.71
2022-10-20T16:45:34.605Z,48.42
2022-10-20T16:48:02.672Z,48.74
2022-10-20T16:50:30.881Z,48.73
2022-10-20T16:53:00.753Z,48.69
2022-10-20T16:55:29.230Z,48.38
2022-10-20T16:57:58.560Z,48.42
2022-10-20T17:00:30.602Z,48.41
2022-10-20T17:02:58.607Z,48.30
2022-10-20T17:05:27.355Z,48.54
2022-10-20T17:07:55.446Z,48.58
2022-10-20T17:10:28.253Z,48.61
2022-10-20T17:12:56.388Z,48.52
2022-10-20T17:15:28.972Z,48.39
2022-10-20T17:17:56.965Z,48.60
2022-10-20T17:20:24.988Z,48.52
2022-10-20T17:22:56.724Z,48.54
2022-10-20T17:25:26.211Z,48.49
2022-10-20T17:27:54.262Z,48.37
2022-10-20T17:30:22.237Z,48.59
2022-10-20T17:32:52.766Z,48.41
2022-10-20T17:35:20.802Z,48.60
2022-10-20T17:37:51.969Z,48.62
2022-10-20T17:40:22.339Z,48.68
2022-10-20T17:42:53.163Z,48.44
2022-10-20T17:45:24.198Z,48.37
2022-10-20T17:47:53.344Z,48.33
2022-10-20T17:50:24.134Z,48.52
2022-10-20T17:52:52.157Z,48.31
2022-10-20T17:55:22.012Z,48.38
2022-10-20T17:57:52.200Z,48.60
2022-10-20T18:00:32.089Z,48.38
2022-10-20T18:03:10.905Z,48.55
2022-10-20T18:05:39.182Z,48.34
2022-10-20T18:08:07.452Z,48.41
2022-10-20T18:10:37.272Z,48.32
2022-10-20T18:13:08.845Z,48.20
2022-10-20T18:15:44.376Z,48.11
2022-10-20T18:18:12.629Z,48.16
2022-10-20T18:20:40.697Z,48.30
2022-10-20T18:23:08.893Z,48.21
2022-10-20T18:25:38.650Z,48.27
2022-10-20T18:28:08.164Z,48.19
2022-10-20T18:30:38.517Z,48.20
2022-10-20T18:33:06.707Z,48.32
2022-10-20T18:35:37.833Z,48.21
2022-10-20T18:38:06.391Z,48.46
2022-10-20T18:40:34.453Z,48.45
2022-10-20T18:43:02.444Z,48.37
2022-10-20T18:45:31.849Z,48.18
2022-10-20T18:47:59.834Z,47.99
2022-10-20T18:50:28.035Z,48.12
2022-10-20T18:52:57.469Z,48.29
2022-10-20T18:55:25.766Z,48.23
2022-10-20T18:57:54.033Z,47.93
2022-10-20T19:00:22.242Z,48.11
2022-10-20T19:02:55.828Z,48.09
2022-10-20T19:05:26.087Z,48.13
2022-10-20T19:07:54.443Z,48.00
2022-10-20T19:10:22.596Z,48.02
2022-10-20T19:12:50.552Z,48.13
2022-10-20T19:15:18.863Z,48.02
2022-10-20T19:17:47.129Z,47.79
2022-10-20T19:20:16.825Z,47.99
2022-10-20T19:22:45.095Z,48.11
2022-10-20T19:25:13.343Z,47.89
2022-10-20T19:27:41.437Z,48.25
2022-10-20T19:30:10.152Z,48.11
2022-10-20T19:32:41.501Z,48.06
2022-10-20T19:35:14.143Z,48.03
2022-10-20T19:37:43.677Z,47.75
2022-10-20T19:40:12.291Z,47.93
2022-10-20T19:42:40.590Z,48.05
2022-10-20T19:45:09.219Z,47.92
2022-10-20T19:47:37.181Z,48.14
2022-10-20T19:50:05.629Z,47.88
2022-10-20T19:52:33.683Z,48.03
2022-10-20T19:55:03.156Z,47.95
2022-10-20T19:57:31.634Z,48.18
2022-10-20T19:59:59.669Z,48.10
2022-10-20T20:02:27.728Z,48.06
2022-10-20T20:04:55.769Z,47.93
2022-10-20T20:07:23.885Z,47.94
2022-10-20T20:09:52.070Z,48.00
2022-10-20T20:12:22.422Z,47.96
2022-10-20T20:14:51.053Z,47.90
2022-10-20T20:17:19.377Z,48.01
2022-10-20T20:19:47.364Z,47.88
2022-10-20T20:22:15.434Z,48.03
2022-10-20T20:24:43.470Z,47.89
2022-10-20T20:27:11.955Z,48.02
2022-10-20T20:29:41.391Z,47.87
2022-10-20T20:32:18.411Z,47.90
2022-10-20T20:34:48.596Z,47.84
2022-10-20T20:37:17.318Z,47.73
2022-10-20T20:39:45.291Z,48.03
2022-10-20T20:42:13.335Z,48.22
2022-10-20T20:44:42.917Z,48.07
2022-10-20T20:47:11.321Z,48.00
2022-10-20T20:49:41.312Z,48.05
2022-10-20T20:52:11.509Z,48.10
2022-10-20T20:54:39.667Z,48.02
2022-10-20T20:57:07.695Z,47.89
2022-10-20T20:59:35.754Z,47.81
2022-10-20T21:02:07.426Z,48.11
2022-10-20T21:04:39.777Z,48.00
2022-10-20T21:07:09.761Z,48.18
2022-10-20T21:09:37.813Z,48.04
2022-10-20T21:12:08.606Z,47.87
2022-10-20T21:14:36.681Z,48.08
2022-10-20T21:17:06.074Z,47.96
2022-10-20T21:19:34.191Z,48.29
2022-10-20T21:22:02.344Z,47.98
2022-10-20T21:24:30.426Z,47.75
2022-10-20T21:26:58.627Z,47.93
2022-10-20T21:29:26.843Z,48.05
2022-10-20T21:31:55.593Z,47.96
2022-10-20T21:34:25.231Z,48.04
2022-10-20T21:36:53.513Z,47.88
2022-10-20T21:39:21.717Z,48.08
2022-10-20T21:41:50.153Z,47.88
2022-10-20T21:44:18.195Z,48.17
2022-10-20T21:46:49.347Z,48.04
2022-10-20T21:49:19.351Z,48.04
2022-10-20T21:51:50.800Z,47.92
2022-10-20T21:56:49.674Z,48.06
2022-10-20T21:59:20.067Z,48.04
2022-10-20T22:01:48.810Z,48.18
2022-10-20T22:04:17.025Z,48.12
2022-10-20T22:06:45.147Z,47.93
2022-10-20T22:09:16.073Z,48.21
2022-10-20T22:11:46.954Z,47.86
2022-10-20T22:14:15.002Z,47.84
2022-10-20T22:16:43.991Z,47.85
2022-10-20T22:19:14.987Z,47.85
2022-10-20T22:21:45.859Z,47.73
2022-10-20T22:24:16.468Z,48.07
2022-10-20T22:26:44.490Z,47.85
2022-10-20T22:29:12.915Z,48.11
2022-10-20T22:31:42.108Z,47.84
2022-10-20T22:34:11.089Z,48.25
2022-10-20T22:36:39.691Z,48.03
2022-10-20T22:39:07.839Z,47.88
2022-10-20T22:41:37.948Z,47.97
2022-10-20T22:44:06.811Z,48.20
2022-10-20T22:46:35.090Z,47.96
2022-10-20T22:49:03.276Z,48.07
2022-10-20T22:51:31.292Z,48.14
2022-10-20T22:53:59.235Z,48.09
2022-10-20T22:56:27.282Z,48.11
2022-10-20T22:58:57.001Z,47.91
2022-10-20T23:01:25.728Z,47.84
2022-10-20T23:03:53.855Z,47.89
2022-10-20T23:06:24.069Z,48.09
2022-10-20T23:08:54.100Z,47.88
2022-10-20T23:11:23.261Z,48.05
2022-10-20T23:13:52.096Z,48.29
2022-10-20T23:16:22.074Z,48.24
2022-10-20T23:18:50.117Z,47.96
2022-10-20T23:21:18.462Z,47.81
2022-10-20T23:23:47.063Z,47.94
2022-10-20T23:26:15.261Z,48.08
2022-10-20T23:28:43.306Z,48.22
2022-10-20T23:31:13.904Z,48.10
2022-10-20T23:33:44.741Z,47.88
2022-10-20T23:36:13.703Z,47.92
2022-10-20T23:38:41.896Z,48.02
2022-10-20T23:41:10.024Z,48.20
2022-10-20T23:43:38.015Z,47.86
2022-10-20T23:46:06.672Z,48.13
2022-10-20T23:48:35.050Z,47.89
2022-10-20T23:51:04.632Z,47.99
2022-10-20T23:53:33.120Z,48.10
2022-10-20T23:56:01.324Z,48.12
2022-10-20T23:58:29.389Z,47.98
